sensor_id;sensor_type;location;lat;lon;timestamp;P1;durP1;ratioP1;P2;durP2;ratioP2
7233;SDS011;3658;47.992;10.158;2023-02-13T00:00:03;3.07;;;2.70;;
7233;SDS011;3658;47.992;10.158;2023-02-13T00:02:32;2.87;;;2.63;;
7233;SDS011;3658;47.992;10.158;2023-02-13T00:04:59;3.40;;;3.07;;
7233;SDS011;3658;47.992;10.158;2023-02-13T00:07:26;3.53;;;3.23;;
7233;SDS011;3658;47.992;10.158;2023-02-13T00:09:54;4.87;;;3.27;;
7233;SDS011;3658;47.992;10.158;2023-02-13T00:12:21;3.87;;;3.57;;
7233;SDS011;3658;47.992;10.158;2023-02-13T00:14:48;3.13;;;2.83;;
7233;SDS011;3658;47.992;10.158;2023-02-13T00:17:15;3.17;;;2.80;;
7233;SDS011;3658;47.992;10.158;2023-02-13T00:19:42;3.33;;;3.03;;
7233;SDS011;3658;47.992;10.158;2023-02-13T00:22:08;3.47;;;3.17;;
7233;SDS011;3658;47.992;10.158;2023-02-13T00:24:35;3.83;;;2.90;;
7233;SDS011;3658;47.992;10.158;2023-02-13T00:27:04;3.20;;;2.90;;
7233;SDS011;3658;47.992;10.158;2023-02-13T00:29:31;3.40;;;3.10;;
7233;SDS011;3658;47.992;10.158;2023-02-13T00:31:58;3.13;;;2.87;;
7233;SDS011;3658;47.992;10.158;2023-02-13T00:34:25;3.70;;;3.30;;
7233;SDS011;3658;47.992;10.158;2023-02-13T00:36:52;3.50;;;3.20;;
7233;SDS011;3658;47.992;10.158;2023-02-13T00:39:19;3.43;;;3.13;;
7233;SDS011;3658;47.992;10.158;2023-02-13T00:41:46;3.30;;;3.00;;
7233;SDS011;3658;47.992;10.158;2023-02-13T00:44:14;2.90;;;2.70;;
7233;SDS011;3658;47.992;10.158;2023-02-13T00:46:41;3.27;;;2.97;;
7233;SDS011;3658;47.992;10.158;2023-02-13T00:49:08;3.30;;;3.00;;
7233;SDS011;3658;47.992;10.158;2023-02-13T00:51:35;3.73;;;2.97;;
7233;SDS011;3658;47.992;10.158;2023-02-13T00:54:02;3.20;;;3.00;;
7233;SDS011;3658;47.992;10.158;2023-02-13T00:56:29;3.50;;;3.20;;
7233;SDS011;3658;47.992;10.158;2023-02-13T00:58:56;2.90;;;2.70;;
7233;SDS011;3658;47.992;10.158;2023-02-13T01:01:24;2.80;;;2.60;;
7233;SDS011;3658;47.992;10.158;2023-02-13T01:03:51;3.50;;;3.20;;
7233;SDS011;3658;47.992;10.158;2023-02-13T01:06:18;3.40;;;3.10;;
7233;SDS011;3658;47.992;10.158;2023-02-13T01:08:45;3.23;;;2.93;;
7233;SDS011;3658;47.992;10.158;2023-02-13T01:11:12;3.17;;;2.87;;
7233;SDS011;3658;47.992;10.158;2023-02-13T01:13:39;3.23;;;2.93;;
7233;SDS011;3658;47.992;10.158;2023-02-13T01:16:06;3.40;;;3.10;;
7233;SDS011;3658;47.992;10.158;2023-02-13T01:18:34;3.20;;;2.90;;
7233;SDS011;3658;47.992;10.158;2023-02-13T01:21:03;3.23;;;2.93;;
7233;SDS011;3658;47.992;10.158;2023-02-13T01:23:31;3.40;;;3.10;;
7233;SDS011;3658;47.992;10.158;2023-02-13T01:25:59;3.20;;;2.90;;
7233;SDS011;3658;47.992;10.158;2023-02-13T01:28:28;3.40;;;3.03;;
7233;SDS011;3658;47.992;10.158;2023-02-13T01:30:56;3.70;;;3.30;;
7233;SDS011;3658;47.992;10.158;2023-02-13T01:33:23;3.43;;;3.13;;
7233;SDS011;3658;47.992;10.158;2023-02-13T01:35:53;3.23;;;2.93;;
7233;SDS011;3658;47.992;10.158;2023-02-13T01:38:20;3.23;;;2.93;;
7233;SDS011;3658;47.992;10.158;2023-02-13T01:40:47;3.30;;;2.97;;
7233;SDS011;3658;47.992;10.158;2023-02-13T01:43:17;4.20;;;2.93;;
7233;SDS011;3658;47.992;10.158;2023-02-13T01:45:48;3.37;;;2.90;;
7233;SDS011;3658;47.992;10.158;2023-02-13T01:48:18;3.70;;;3.30;;
7233;SDS011;3658;47.992;10.158;2023-02-13T01:50:49;3.10;;;2.80;;
7233;SDS011;3658;47.992;10.158;2023-02-13T01:53:20;3.40;;;3.10;;
7233;SDS011;3658;47.992;10.158;2023-02-13T01:55:53;3.33;;;3.03;;
7233;SDS011;3658;47.992;10.158;2023-02-13T01:58:25;3.60;;;3.17;;
7233;SDS011;3658;47.992;10.158;2023-02-13T02:00:54;3.30;;;3.00;;
7233;SDS011;3658;47.992;10.158;2023-02-13T02:03:23;3.37;;;3.07;;
7233;SDS011;3658;47.992;10.158;2023-02-13T02:05:53;3.50;;;3.20;;
7233;SDS011;3658;47.992;10.158;2023-02-13T02:08:23;3.20;;;2.90;;
7233;SDS011;3658;47.992;10.158;2023-02-13T02:10:51;3.80;;;3.40;;
7233;SDS011;3658;47.992;10.158;2023-02-13T02:13:19;3.80;;;3.50;;
7233;SDS011;3658;47.992;10.158;2023-02-13T02:15:47;3.90;;;3.50;;
7233;SDS011;3658;47.992;10.158;2023-02-13T02:18:15;3.10;;;2.80;;
7233;SDS011;3658;47.992;10.158;2023-02-13T02:20:56;3.50;;;3.13;;
7233;SDS011;3658;47.992;10.158;2023-02-13T02:23:50;3.30;;;3.00;;
7233;SDS011;3658;47.992;10.158;2023-02-13T02:27:04;3.23;;;2.93;;
7233;SDS011;3658;47.992;10.158;2023-02-13T02:33:14;3.23;;;2.93;;
7233;SDS011;3658;47.992;10.158;2023-02-13T02:35:50;2.80;;;2.60;;
7233;SDS011;3658;47.992;10.158;2023-02-13T02:38:29;3.50;;;3.20;;
7233;SDS011;3658;47.992;10.158;2023-02-13T02:41:06;3.50;;;3.20;;
7233;SDS011;3658;47.992;10.158;2023-02-13T02:43:59;3.30;;;3.00;;
7233;SDS011;3658;47.992;10.158;2023-02-13T02:46:35;3.60;;;3.30;;
7233;SDS011;3658;47.992;10.158;2023-02-13T02:49:27;3.40;;;3.10;;
7233;SDS011;3658;47.992;10.158;2023-02-13T02:52:14;3.20;;;2.90;;
7233;SDS011;3658;47.992;10.158;2023-02-13T02:54:47;3.17;;;2.80;;
7233;SDS011;3658;47.992;10.158;2023-02-13T02:57:36;3.27;;;2.97;;
7233;SDS011;3658;47.992;10.158;2023-02-13T03:00:25;3.50;;;3.20;;
7233;SDS011;3658;47.992;10.158;2023-02-13T03:03:17;3.20;;;2.70;;
7233;SDS011;3658;47.992;10.158;2023-02-13T03:06:08;3.23;;;2.90;;
7233;SDS011;3658;47.992;10.158;2023-02-13T03:08:41;3.57;;;3.27;;
7233;SDS011;3658;47.992;10.158;2023-02-13T03:11:28;3.03;;;2.83;;
7233;SDS011;3658;47.992;10.158;2023-02-13T03:14:15;3.43;;;3.10;;
7233;SDS011;3658;47.992;10.158;2023-02-13T03:16:45;3.30;;;3.00;;
7233;SDS011;3658;47.992;10.158;2023-02-13T03:19:34;3.30;;;3.00;;
7233;SDS011;3658;47.992;10.158;2023-02-13T03:22:29;3.33;;;3.03;;
7233;SDS011;3658;47.992;10.158;2023-02-13T03:25:07;3.47;;;3.17;;
7233;SDS011;3658;47.992;10.158;2023-02-13T03:27:44;3.37;;;3.07;;
7233;SDS011;3658;47.992;10.158;2023-02-13T03:30:39;3.10;;;2.80;;
7233;SDS011;3658;47.992;10.158;2023-02-13T03:33:20;3.20;;;2.90;;
7233;SDS011;3658;47.992;10.158;2023-02-13T03:35:57;3.50;;;3.20;;
7233;SDS011;3658;47.992;10.158;2023-02-13T03:38:51;3.03;;;2.73;;
7233;SDS011;3658;47.992;10.158;2023-02-13T03:41:25;3.00;;;2.70;;
7233;SDS011;3658;47.992;10.158;2023-02-13T03:43:58;3.13;;;2.90;;
7233;SDS011;3658;47.992;10.158;2023-02-13T03:46:32;3.07;;;2.77;;
7233;SDS011;3658;47.992;10.158;2023-02-13T03:49:01;3.10;;;2.80;;
7233;SDS011;3658;47.992;10.158;2023-02-13T03:51:49;3.00;;;2.80;;
7233;SDS011;3658;47.992;10.158;2023-02-13T03:54:21;2.80;;;2.60;;
7233;SDS011;3658;47.992;10.158;2023-02-13T03:57:09;2.67;;;2.47;;
7233;SDS011;3658;47.992;10.158;2023-02-13T04:00:01;3.03;;;2.60;;
7233;SDS011;3658;47.992;10.158;2023-02-13T04:02:31;2.97;;;2.70;;
7233;SDS011;3658;47.992;10.158;2023-02-13T04:05:03;3.57;;;2.80;;
7233;SDS011;3658;47.992;10.158;2023-02-13T04:07:34;3.17;;;2.83;;
7233;SDS011;3658;47.992;10.158;2023-02-13T04:10:03;3.23;;;2.93;;
7233;SDS011;3658;47.992;10.158;2023-02-13T04:12:37;3.10;;;2.80;;
7233;SDS011;3658;47.992;10.158;2023-02-13T04:15:10;3.07;;;2.77;;
7233;SDS011;3658;47.992;10.158;2023-02-13T04:17:42;3.17;;;2.80;;
7233;SDS011;3658;47.992;10.158;2023-02-13T04:20:12;2.93;;;2.73;;
7233;SDS011;3658;47.992;10.158;2023-02-13T04:22:42;3.03;;;2.73;;
7233;SDS011;3658;47.992;10.158;2023-02-13T04:25:12;2.80;;;2.60;;
7233;SDS011;3658;47.992;10.158;2023-02-13T04:27:40;3.37;;;3.07;;
7233;SDS011;3658;47.992;10.158;2023-02-13T04:30:08;2.90;;;2.70;;
7233;SDS011;3658;47.992;10.158;2023-02-13T04:32:35;2.60;;;2.40;;
7233;SDS011;3658;47.992;10.158;2023-02-13T04:35:02;2.90;;;2.70;;
7233;SDS011;3658;47.992;10.158;2023-02-13T04:37:29;3.07;;;2.77;;
7233;SDS011;3658;47.992;10.158;2023-02-13T04:39:56;3.03;;;2.73;;
7233;SDS011;3658;47.992;10.158;2023-02-13T04:42:25;2.80;;;2.60;;
7233;SDS011;3658;47.992;10.158;2023-02-13T04:44:51;3.90;;;3.00;;
7233;SDS011;3658;47.992;10.158;2023-02-13T04:47:18;2.90;;;2.70;;
7233;SDS011;3658;47.992;10.158;2023-02-13T04:49:45;2.97;;;2.77;;
7233;SDS011;3658;47.992;10.158;2023-02-13T04:52:12;2.87;;;2.67;;
7233;SDS011;3658;47.992;10.158;2023-02-13T04:54:40;3.10;;;2.87;;
7233;SDS011;3658;47.992;10.158;2023-02-13T04:57:07;2.90;;;2.70;;
7233;SDS011;3658;47.992;10.158;2023-02-13T04:59:35;3.30;;;3.00;;
7233;SDS011;3658;47.992;10.158;2023-02-13T05:02:02;3.30;;;3.00;;
7233;SDS011;3658;47.992;10.158;2023-02-13T05:04:29;3.30;;;3.00;;
7233;SDS011;3658;47.992;10.158;2023-02-13T05:06:56;3.27;;;2.97;;
7233;SDS011;3658;47.992;10.158;2023-02-13T05:09:23;3.40;;;3.10;;
7233;SDS011;3658;47.992;10.158;2023-02-13T05:11:51;3.20;;;2.90;;
7233;SDS011;3658;47.992;10.158;2023-02-13T05:14:18;3.77;;;3.10;;
7233;SDS011;3658;47.992;10.158;2023-02-13T05:16:47;3.50;;;3.20;;
7233;SDS011;3658;47.992;10.158;2023-02-13T05:19:14;2.70;;;2.50;;
7233;SDS011;3658;47.992;10.158;2023-02-13T05:21:41;3.20;;;2.90;;
7233;SDS011;3658;47.992;10.158;2023-02-13T05:24:26;3.20;;;2.90;;
7233;SDS011;3658;47.992;10.158;2023-02-13T05:26:53;3.10;;;2.80;;
7233;SDS011;3658;47.992;10.158;2023-02-13T05:29:20;3.37;;;3.07;;
7233;SDS011;3658;47.992;10.158;2023-02-13T05:31:49;3.30;;;3.00;;
7233;SDS011;3658;47.992;10.158;2023-02-13T05:34:17;3.13;;;2.83;;
7233;SDS011;3658;47.992;10.158;2023-02-13T05:36:45;3.10;;;2.90;;
7233;SDS011;3658;47.992;10.158;2023-02-13T05:39:12;2.97;;;2.67;;
7233;SDS011;3658;47.992;10.158;2023-02-13T05:41:40;3.00;;;2.70;;
7233;SDS011;3658;47.992;10.158;2023-02-13T05:44:07;3.27;;;2.77;;
7233;SDS011;3658;47.992;10.158;2023-02-13T05:46:35;2.67;;;2.40;;
7233;SDS011;3658;47.992;10.158;2023-02-13T05:49:04;2.73;;;2.50;;
7233;SDS011;3658;47.992;10.158;2023-02-13T05:51:32;3.03;;;2.73;;
7233;SDS011;3658;47.992;10.158;2023-02-13T05:53:59;2.70;;;2.50;;
7233;SDS011;3658;47.992;10.158;2023-02-13T05:56:26;2.70;;;2.50;;
7233;SDS011;3658;47.992;10.158;2023-02-13T05:58:53;2.60;;;2.40;;
7233;SDS011;3658;47.992;10.158;2023-02-13T06:01:21;3.20;;;2.90;;
7233;SDS011;3658;47.992;10.158;2023-02-13T06:03:49;3.10;;;2.80;;
7233;SDS011;3658;47.992;10.158;2023-02-13T06:06:17;3.00;;;2.70;;
7233;SDS011;3658;47.992;10.158;2023-02-13T06:08:45;2.83;;;2.63;;
7233;SDS011;3658;47.992;10.158;2023-02-13T06:11:12;2.70;;;2.50;;
7233;SDS011;3658;47.992;10.158;2023-02-13T06:13:39;2.73;;;2.53;;
7233;SDS011;3658;47.992;10.158;2023-02-13T06:16:06;3.27;;;2.97;;
7233;SDS011;3658;47.992;10.158;2023-02-13T06:18:34;2.70;;;2.50;;
7233;SDS011;3658;47.992;10.158;2023-02-13T06:21:01;2.70;;;2.30;;
7233;SDS011;3658;47.992;10.158;2023-02-13T06:23:30;2.60;;;2.40;;
7233;SDS011;3658;47.992;10.158;2023-02-13T06:26:00;2.63;;;2.43;;
7233;SDS011;3658;47.992;10.158;2023-02-13T06:28:27;3.13;;;2.30;;
7233;SDS011;3658;47.992;10.158;2023-02-13T06:30:54;3.60;;;2.30;;
7233;SDS011;3658;47.992;10.158;2023-02-13T06:33:21;6.73;;;2.43;;
7233;SDS011;3658;47.992;10.158;2023-02-13T06:35:48;4.87;;;2.30;;
7233;SDS011;3658;47.992;10.158;2023-02-13T06:38:15;4.30;;;2.10;;
7233;SDS011;3658;47.992;10.158;2023-02-13T06:40:45;3.30;;;2.03;;
7233;SDS011;3658;47.992;10.158;2023-02-13T06:43:13;2.43;;;2.23;;
7233;SDS011;3658;47.992;10.158;2023-02-13T06:45:40;3.03;;;2.00;;
7233;SDS011;3658;47.992;10.158;2023-02-13T06:48:07;12.33;;;2.73;;
7233;SDS011;3658;47.992;10.158;2023-02-13T06:50:34;6.83;;;2.40;;
7233;SDS011;3658;47.992;10.158;2023-02-13T06:53:01;4.60;;;2.10;;
7233;SDS011;3658;47.992;10.158;2023-02-13T06:55:28;4.17;;;2.10;;
7233;SDS011;3658;47.992;10.158;2023-02-13T06:57:56;6.00;;;2.00;;
7233;SDS011;3658;47.992;10.158;2023-02-13T07:00:23;7.97;;;1.90;;
7233;SDS011;3658;47.992;10.158;2023-02-13T07:02:51;6.33;;;2.10;;
7233;SDS011;3658;47.992;10.158;2023-02-13T07:05:18;7.53;;;2.57;;
7233;SDS011;3658;47.992;10.158;2023-02-13T07:07:45;4.70;;;2.40;;
7233;SDS011;3658;47.992;10.158;2023-02-13T07:10:12;7.57;;;2.60;;
7233;SDS011;3658;47.992;10.158;2023-02-13T07:12:39;9.57;;;2.60;;
7233;SDS011;3658;47.992;10.158;2023-02-13T07:15:08;8.00;;;2.40;;
7233;SDS011;3658;47.992;10.158;2023-02-13T07:17:35;5.63;;;2.40;;
7233;SDS011;3658;47.992;10.158;2023-02-13T07:20:03;6.53;;;2.43;;
7233;SDS011;3658;47.992;10.158;2023-02-13T07:22:30;8.97;;;2.83;;
7233;SDS011;3658;47.992;10.158;2023-02-13T07:24:58;7.37;;;2.40;;
7233;SDS011;3658;47.992;10.158;2023-02-13T07:27:25;6.20;;;2.40;;
7233;SDS011;3658;47.992;10.158;2023-02-13T07:29:53;6.77;;;2.37;;
7233;SDS011;3658;47.992;10.158;2023-02-13T07:32:23;4.43;;;2.37;;
7233;SDS011;3658;47.992;10.158;2023-02-13T07:34:51;6.17;;;2.30;;
7233;SDS011;3658;47.992;10.158;2023-02-13T07:37:18;5.30;;;2.30;;
7233;SDS011;3658;47.992;10.158;2023-02-13T07:39:45;4.93;;;3.10;;
7233;SDS011;3658;47.992;10.158;2023-02-13T07:42:12;3.27;;;2.37;;
7233;SDS011;3658;47.992;10.158;2023-02-13T07:44:38;3.33;;;2.10;;
7233;SDS011;3658;47.992;10.158;2023-02-13T07:47:05;8.77;;;2.93;;
7233;SDS011;3658;47.992;10.158;2023-02-13T07:49:34;5.20;;;2.50;;
7233;SDS011;3658;47.992;10.158;2023-02-13T07:52:01;3.60;;;2.40;;
7233;SDS011;3658;47.992;10.158;2023-02-13T07:54:29;3.70;;;2.40;;
7233;SDS011;3658;47.992;10.158;2023-02-13T07:56:57;6.03;;;2.30;;
7233;SDS011;3658;47.992;10.158;2023-02-13T07:59:24;5.13;;;2.23;;
7233;SDS011;3658;47.992;10.158;2023-02-13T08:01:51;3.73;;;2.20;;
7233;SDS011;3658;47.992;10.158;2023-02-13T08:04:18;3.63;;;2.27;;
7233;SDS011;3658;47.992;10.158;2023-02-13T08:06:46;3.77;;;2.07;;
7233;SDS011;3658;47.992;10.158;2023-02-13T08:09:17;2.43;;;1.90;;
7233;SDS011;3658;47.992;10.158;2023-02-13T08:12:02;2.73;;;2.10;;
7233;SDS011;3658;47.992;10.158;2023-02-13T08:14:32;3.07;;;2.30;;
7233;SDS011;3658;47.992;10.158;2023-02-13T08:16:59;2.90;;;2.20;;
7233;SDS011;3658;47.992;10.158;2023-02-13T08:19:26;4.47;;;2.40;;
7233;SDS011;3658;47.992;10.158;2023-02-13T08:21:55;3.00;;;2.20;;
7233;SDS011;3658;47.992;10.158;2023-02-13T08:24:22;4.27;;;2.10;;
7233;SDS011;3658;47.992;10.158;2023-02-13T08:26:49;5.63;;;1.90;;
7233;SDS011;3658;47.992;10.158;2023-02-13T08:29:16;2.67;;;2.00;;
7233;SDS011;3658;47.992;10.158;2023-02-13T08:31:43;3.00;;;2.10;;
7233;SDS011;3658;47.992;10.158;2023-02-13T08:34:10;3.57;;;2.40;;
7233;SDS011;3658;47.992;10.158;2023-02-13T08:36:37;2.27;;;1.90;;
7233;SDS011;3658;47.992;10.158;2023-02-13T08:39:05;2.77;;;2.03;;
7233;SDS011;3658;47.992;10.158;2023-02-13T08:41:34;3.00;;;1.90;;
7233;SDS011;3658;47.992;10.158;2023-02-13T08:44:01;2.37;;;2.07;;
7233;SDS011;3658;47.992;10.158;2023-02-13T08:46:28;2.63;;;2.00;;
7233;SDS011;3658;47.992;10.158;2023-02-13T08:48:55;2.40;;;2.00;;
7233;SDS011;3658;47.992;10.158;2023-02-13T08:51:21;1.93;;;1.83;;
7233;SDS011;3658;47.992;10.158;2023-02-13T08:53:48;2.40;;;2.20;;
7233;SDS011;3658;47.992;10.158;2023-02-13T08:56:17;2.00;;;1.80;;
7233;SDS011;3658;47.992;10.158;2023-02-13T08:58:46;1.80;;;1.70;;
7233;SDS011;3658;47.992;10.158;2023-02-13T09:01:13;2.60;;;1.80;;
7233;SDS011;3658;47.992;10.158;2023-02-13T09:03:40;2.10;;;1.90;;
7233;SDS011;3658;47.992;10.158;2023-02-13T09:06:07;2.00;;;1.80;;
7233;SDS011;3658;47.992;10.158;2023-02-13T09:08:34;2.07;;;1.87;;
7233;SDS011;3658;47.992;10.158;2023-02-13T09:11:02;2.10;;;1.90;;
7233;SDS011;3658;47.992;10.158;2023-02-13T09:13:32;1.87;;;1.77;;
7233;SDS011;3658;47.992;10.158;2023-02-13T09:16:01;1.80;;;1.70;;
7233;SDS011;3658;47.992;10.158;2023-02-13T09:18:29;2.10;;;1.90;;
7233;SDS011;3658;47.992;10.158;2023-02-13T09:20:56;2.43;;;1.60;;
7233;SDS011;3658;47.992;10.158;2023-02-13T09:23:25;1.93;;;1.80;;
7233;SDS011;3658;47.992;10.158;2023-02-13T09:25:52;2.37;;;1.60;;
7233;SDS011;3658;47.992;10.158;2023-02-13T09:28:18;2.07;;;1.70;;
7233;SDS011;3658;47.992;10.158;2023-02-13T09:30:47;1.80;;;1.70;;
7233;SDS011;3658;47.992;10.158;2023-02-13T09:33:14;1.93;;;1.80;;
7233;SDS011;3658;47.992;10.158;2023-02-13T09:35:41;1.93;;;1.83;;
7233;SDS011;3658;47.992;10.158;2023-02-13T09:38:08;1.87;;;1.70;;
7233;SDS011;3658;47.992;10.158;2023-02-13T09:40:38;1.83;;;1.73;;
7233;SDS011;3658;47.992;10.158;2023-02-13T09:43:10;1.90;;;1.60;;
7233;SDS011;3658;47.992;10.158;2023-02-13T09:45:42;1.60;;;1.50;;
7233;SDS011;3658;47.992;10.158;2023-02-13T09:48:16;2.07;;;1.87;;
7233;SDS011;3658;47.992;10.158;2023-02-13T09:50:47;1.77;;;1.67;;
7233;SDS011;3658;47.992;10.158;2023-02-13T09:53:15;1.70;;;1.60;;
7233;SDS011;3658;47.992;10.158;2023-02-13T09:55:48;1.70;;;1.60;;
7233;SDS011;3658;47.992;10.158;2023-02-13T09:58:27;2.00;;;1.77;;
7233;SDS011;3658;47.992;10.158;2023-02-13T10:01:02;1.67;;;1.57;;
7233;SDS011;3658;47.992;10.158;2023-02-13T10:03:38;1.70;;;1.60;;
7233;SDS011;3658;47.992;10.158;2023-02-13T10:06:11;1.93;;;1.83;;
7233;SDS011;3658;47.992;10.158;2023-02-13T10:08:48;1.80;;;1.70;;
7233;SDS011;3658;47.992;10.158;2023-02-13T10:11:47;1.90;;;1.80;;
7233;SDS011;3658;47.992;10.158;2023-02-13T10:14:30;1.97;;;1.80;;
7233;SDS011;3658;47.992;10.158;2023-02-13T10:17:01;1.70;;;1.60;;
7233;SDS011;3658;47.992;10.158;2023-02-13T10:19:35;1.80;;;1.70;;
7233;SDS011;3658;47.992;10.158;2023-02-13T10:22:09;1.70;;;1.60;;
7233;SDS011;3658;47.992;10.158;2023-02-13T10:24:43;2.00;;;1.80;;
7233;SDS011;3658;47.992;10.158;2023-02-13T10:27:18;1.60;;;1.50;;
7233;SDS011;3658;47.992;10.158;2023-02-13T10:29:49;1.60;;;1.50;;
7233;SDS011;3658;47.992;10.158;2023-02-13T10:32:38;1.90;;;1.80;;
7233;SDS011;3658;47.992;10.158;2023-02-13T10:35:17;1.80;;;1.70;;
7233;SDS011;3658;47.992;10.158;2023-02-13T10:37:47;1.80;;;1.70;;
7233;SDS011;3658;47.992;10.158;2023-02-13T10:40:17;1.80;;;1.70;;
7233;SDS011;3658;47.992;10.158;2023-02-13T10:42:45;1.77;;;1.67;;
7233;SDS011;3658;47.992;10.158;2023-02-13T10:45:22;1.83;;;1.73;;
7233;SDS011;3658;47.992;10.158;2023-02-13T10:48:05;1.93;;;1.80;;
7233;SDS011;3658;47.992;10.158;2023-02-13T10:50:54;1.77;;;1.60;;
7233;SDS011;3658;47.992;10.158;2023-02-13T10:53:31;2.57;;;1.50;;
7233;SDS011;3658;47.992;10.158;2023-02-13T10:56:19;2.33;;;1.67;;
7233;SDS011;3658;47.992;10.158;2023-02-13T10:58:57;1.60;;;1.50;;
7233;SDS011;3658;47.992;10.158;2023-02-13T11:01:38;1.80;;;1.70;;
7233;SDS011;3658;47.992;10.158;2023-02-13T11:04:13;1.80;;;1.70;;
7233;SDS011;3658;47.992;10.158;2023-02-13T11:06:47;2.10;;;1.90;;
7233;SDS011;3658;47.992;10.158;2023-02-13T11:09:23;1.77;;;1.67;;
7233;SDS011;3658;47.992;10.158;2023-02-13T11:11:55;1.87;;;1.77;;
7233;SDS011;3658;47.992;10.158;2023-02-13T11:14:23;1.70;;;1.60;;
7233;SDS011;3658;47.992;10.158;2023-02-13T11:16:55;1.70;;;1.60;;
7233;SDS011;3658;47.992;10.158;2023-02-13T11:19:24;1.77;;;1.67;;
7233;SDS011;3658;47.992;10.158;2023-02-13T11:21:58;1.87;;;1.77;;
7233;SDS011;3658;47.992;10.158;2023-02-13T11:24:29;1.77;;;1.67;;
7233;SDS011;3658;47.992;10.158;2023-02-13T11:26:59;1.80;;;1.70;;
7233;SDS011;3658;47.992;10.158;2023-02-13T11:29:30;1.87;;;1.77;;
7233;SDS011;3658;47.992;10.158;2023-02-13T11:32:03;1.70;;;1.60;;
7233;SDS011;3658;47.992;10.158;2023-02-13T11:34:36;2.00;;;1.70;;
7233;SDS011;3658;47.992;10.158;2023-02-13T11:37:14;1.70;;;1.60;;
7233;SDS011;3658;47.992;10.158;2023-02-13T11:39:49;2.00;;;1.80;;
7233;SDS011;3658;47.992;10.158;2023-02-13T11:42:20;2.53;;;2.03;;
7233;SDS011;3658;47.992;10.158;2023-02-13T11:44:51;1.87;;;1.77;;
7233;SDS011;3658;47.992;10.158;2023-02-13T11:47:29;2.30;;;2.10;;
7233;SDS011;3658;47.992;10.158;2023-02-13T11:50:18;1.83;;;1.73;;
7233;SDS011;3658;47.992;10.158;2023-02-13T11:52:53;1.80;;;1.70;;
7233;SDS011;3658;47.992;10.158;2023-02-13T11:55:24;1.77;;;1.67;;
7233;SDS011;3658;47.992;10.158;2023-02-13T11:57:56;2.13;;;1.70;;
7233;SDS011;3658;47.992;10.158;2023-02-13T12:00:26;1.80;;;1.70;;
7233;SDS011;3658;47.992;10.158;2023-02-13T12:03:01;1.70;;;1.60;;
7233;SDS011;3658;47.992;10.158;2023-02-13T12:05:28;1.70;;;1.60;;
7233;SDS011;3658;47.992;10.158;2023-02-13T12:07:57;2.20;;;2.00;;
7233;SDS011;3658;47.992;10.158;2023-02-13T12:10:26;1.93;;;1.83;;
7233;SDS011;3658;47.992;10.158;2023-02-13T12:12:55;1.60;;;1.50;;
7233;SDS011;3658;47.992;10.158;2023-02-13T12:15:24;1.73;;;1.63;;
7233;SDS011;3658;47.992;10.158;2023-02-13T12:18:02;2.23;;;1.90;;
7233;SDS011;3658;47.992;10.158;2023-02-13T12:20:38;1.87;;;1.67;;
7233;SDS011;3658;47.992;10.158;2023-02-13T12:23:18;1.83;;;1.73;;
7233;SDS011;3658;47.992;10.158;2023-02-13T12:26:06;1.80;;;1.70;;
7233;SDS011;3658;47.992;10.158;2023-02-13T12:28:44;1.70;;;1.60;;
7233;SDS011;3658;47.992;10.158;2023-02-13T12:31:25;1.83;;;1.73;;
7233;SDS011;3658;47.992;10.158;2023-02-13T12:34:12;2.27;;;1.90;;
7233;SDS011;3658;47.992;10.158;2023-02-13T12:36:59;2.33;;;2.13;;
7233;SDS011;3658;47.992;10.158;2023-02-13T12:39:40;2.27;;;2.10;;
7233;SDS011;3658;47.992;10.158;2023-02-13T12:42:20;1.90;;;1.80;;
7233;SDS011;3658;47.992;10.158;2023-02-13T12:44:57;2.10;;;1.90;;
7233;SDS011;3658;47.992;10.158;2023-02-13T12:47:41;2.07;;;1.87;;
7233;SDS011;3658;47.992;10.158;2023-02-13T12:50:31;1.97;;;1.73;;
7233;SDS011;3658;47.992;10.158;2023-02-13T12:53:14;2.00;;;1.80;;
7233;SDS011;3658;47.992;10.158;2023-02-13T12:56:05;2.07;;;1.87;;
7233;SDS011;3658;47.992;10.158;2023-02-13T12:58:47;1.90;;;1.80;;
7233;SDS011;3658;47.992;10.158;2023-02-13T13:01:43;2.03;;;1.83;;
7233;SDS011;3658;47.992;10.158;2023-02-13T13:04:34;2.00;;;1.90;;
7233;SDS011;3658;47.992;10.158;2023-02-13T13:07:15;1.83;;;1.73;;
7233;SDS011;3658;47.992;10.158;2023-02-13T13:10:17;2.00;;;1.90;;
7233;SDS011;3658;47.992;10.158;2023-02-13T13:13:20;2.30;;;2.10;;
7233;SDS011;3658;47.992;10.158;2023-02-13T13:16:00;1.97;;;1.80;;
7233;SDS011;3658;47.992;10.158;2023-02-13T13:18:37;2.40;;;2.00;;
7233;SDS011;3658;47.992;10.158;2023-02-13T13:21:12;2.00;;;1.83;;
7233;SDS011;3658;47.992;10.158;2023-02-13T13:23:45;4.07;;;2.00;;
7233;SDS011;3658;47.992;10.158;2023-02-13T13:26:20;2.40;;;2.20;;
7233;SDS011;3658;47.992;10.158;2023-02-13T13:28:57;2.53;;;2.00;;
7233;SDS011;3658;47.992;10.158;2023-02-13T13:31:27;1.87;;;1.77;;
7233;SDS011;3658;47.992;10.158;2023-02-13T13:33:54;2.00;;;1.80;;
7233;SDS011;3658;47.992;10.158;2023-02-13T13:36:33;1.80;;;1.70;;
7233;SDS011;3658;47.992;10.158;2023-02-13T13:39:11;2.50;;;2.00;;
7233;SDS011;3658;47.992;10.158;2023-02-13T13:41:51;2.77;;;1.80;;
7233;SDS011;3658;47.992;10.158;2023-02-13T13:44:39;2.30;;;2.10;;
7233;SDS011;3658;47.992;10.158;2023-02-13T13:47:18;2.20;;;1.97;;
7233;SDS011;3658;47.992;10.158;2023-02-13T13:49:50;2.00;;;1.90;;
7233;SDS011;3658;47.992;10.158;2023-02-13T13:52:21;2.93;;;1.77;;
7233;SDS011;3658;47.992;10.158;2023-02-13T13:54:50;1.93;;;1.83;;
7233;SDS011;3658;47.992;10.158;2023-02-13T13:57:18;2.03;;;1.87;;
7233;SDS011;3658;47.992;10.158;2023-02-13T14:00:18;2.13;;;1.97;;
7233;SDS011;3658;47.992;10.158;2023-02-13T14:02:50;2.27;;;2.07;;
7233;SDS011;3658;47.992;10.158;2023-02-13T14:11:34;2.23;;;2.03;;
7233;SDS011;3658;47.992;10.158;2023-02-13T14:17:12;2.87;;;1.93;;
7233;SDS011;3658;47.992;10.158;2023-02-13T14:19:41;2.47;;;2.27;;
7233;SDS011;3658;47.992;10.158;2023-02-13T14:22:24;2.83;;;2.13;;
7233;SDS011;3658;47.992;10.158;2023-02-13T14:24:58;2.10;;;1.90;;
7233;SDS011;3658;47.992;10.158;2023-02-13T14:27:28;2.30;;;1.90;;
7233;SDS011;3658;47.992;10.158;2023-02-13T14:29:57;2.60;;;2.30;;
7233;SDS011;3658;47.992;10.158;2023-02-13T14:32:27;2.17;;;1.97;;
7233;SDS011;3658;47.992;10.158;2023-02-13T14:34:57;2.20;;;2.00;;
7233;SDS011;3658;47.992;10.158;2023-02-13T14:37:27;2.20;;;2.00;;
7233;SDS011;3658;47.992;10.158;2023-02-13T14:42:58;2.60;;;2.00;;
7233;SDS011;3658;47.992;10.158;2023-02-13T14:45:31;2.37;;;2.00;;
7233;SDS011;3658;47.992;10.158;2023-02-13T14:48:03;2.17;;;1.90;;
7233;SDS011;3658;47.992;10.158;2023-02-13T14:50:36;2.20;;;2.00;;
7233;SDS011;3658;47.992;10.158;2023-02-13T14:53:14;2.33;;;2.10;;
7233;SDS011;3658;47.992;10.158;2023-02-13T14:55:45;2.53;;;2.10;;
7233;SDS011;3658;47.992;10.158;2023-02-13T14:58:19;2.13;;;1.93;;
7233;SDS011;3658;47.992;10.158;2023-02-13T15:00:50;1.90;;;1.80;;
7233;SDS011;3658;47.992;10.158;2023-02-13T15:03:24;2.63;;;1.83;;
7233;SDS011;3658;47.992;10.158;2023-02-13T15:05:56;2.10;;;1.90;;
7233;SDS011;3658;47.992;10.158;2023-02-13T15:08:26;2.50;;;2.13;;
7233;SDS011;3658;47.992;10.158;2023-02-13T15:10:57;1.87;;;1.77;;
7233;SDS011;3658;47.992;10.158;2023-02-13T15:13:25;2.13;;;1.93;;
7233;SDS011;3658;47.992;10.158;2023-02-13T15:15:57;2.07;;;1.80;;
7233;SDS011;3658;47.992;10.158;2023-02-13T15:18:28;2.37;;;2.17;;
7233;SDS011;3658;47.992;10.158;2023-02-13T15:20:58;3.00;;;2.03;;
7233;SDS011;3658;47.992;10.158;2023-02-13T15:23:27;2.23;;;2.00;;
7233;SDS011;3658;47.992;10.158;2023-02-13T15:25:56;2.47;;;2.27;;
7233;SDS011;3658;47.992;10.158;2023-02-13T15:28:25;2.37;;;2.17;;
7233;SDS011;3658;47.992;10.158;2023-02-13T15:30:54;2.87;;;2.17;;
7233;SDS011;3658;47.992;10.158;2023-02-13T15:33:24;2.23;;;1.90;;
7233;SDS011;3658;47.992;10.158;2023-02-13T15:35:54;1.80;;;1.70;;
7233;SDS011;3658;47.992;10.158;2023-02-13T15:38:23;2.20;;;1.90;;
7233;SDS011;3658;47.992;10.158;2023-02-13T15:40:53;2.10;;;1.90;;
7233;SDS011;3658;47.992;10.158;2023-02-13T15:43:25;2.10;;;1.77;;
7233;SDS011;3658;47.992;10.158;2023-02-13T15:45:58;2.50;;;1.90;;